Time;durP1;ratioP1;P1;durP2;ratioP2;P2;SDS_P1;SDS_P2;PMS_P1;PMS_P2;Temp;Humidity;BMP_temperature;BMP_pressure;BME280_temperature;BME280_humidity;BME280_pressure;Samples;Min_cycle;Max_cycle;Signal;HPM_P1;HPM_P2
2022/04/05 00:01:37;;;;;;;31.08;19.05;;;2.70;99.90;;;;;;4931770;28;20053;-61
2022/04/05 00:04:04;;;;;;;26.25;17.45;;;2.70;99.90;;;;;;4928837;28;20335;-61
2022/04/05 00:06:31;;;;;;;30.42;19.08;;;2.70;99.90;;;;;;4932874;28;20053;-61
2022/04/05 00:08:58;;;;;;;27.15;17.73;;;2.70;99.90;;;;;;4931707;28;20068;-61
2022/04/05 00:11:25;;;;;;;27.77;17.92;;;2.70;99.90;;;;;;4934149;28;20035;-61
2022/04/05 00:13:52;;;;;;;26.17;16.77;;;2.70;99.90;;;;;;4929928;28;20920;-61
2022/04/05 00:16:19;;;;;;;;;;;2.70;99.90;;;;;;4931388;28;20060;-61
2022/04/05 00:18:46;;;;;;;26.17;17.48;;;2.70;99.90;;;;;;4932174;28;19933;-61
2022/04/05 00:21:13;;;;;;;28.42;17.48;;;2.70;99.90;;;;;;4929212;28;20594;-62
2022/04/05 00:23:39;;;;;;;27.42;17.45;;;2.70;99.90;;;;;;4929645;28;20048;-61
2022/04/05 00:26:06;;;;;;;26.08;16.70;;;2.70;99.90;;;;;;4930830;28;20517;-61
2022/04/05 00:28:33;;;;;;;27.25;17.50;;;2.70;99.90;;;;;;4931266;28;20382;-61
2022/04/05 00:31:00;;;;;;;27.73;18.67;;;2.70;99.90;;;;;;4931073;28;20073;-61
2022/04/05 00:33:27;;;;;;;30.33;16.23;;;2.70;99.90;;;;;;4932173;28;20030;-62
2022/04/05 00:35:54;;;;;;;28.15;17.25;;;2.70;99.90;;;;;;4935406;28;20061;-61
2022/04/05 00:38:21;;;;;;;25.77;16.75;;;2.70;99.90;;;;;;4928759;28;20586;-61
2022/04/05 00:40:48;;;;;;;23.38;15.85;;;2.80;99.90;;;;;;4929753;28;20161;-61
2022/04/05 00:43:15;;;;;;;25.52;16.70;;;2.80;99.90;;;;;;4932870;28;20285;-62
2022/04/05 00:45:42;;;;;;;21.60;15.68;;;2.80;99.90;;;;;;4930882;28;20043;-61
2022/04/05 00:48:11;;;;;;;26.42;16.63;;;2.90;99.90;;;;;;4921045;28;20217;-61
2022/04/05 00:50:39;;;;;;;27.08;15.63;;;2.90;99.90;;;;;;4930673;28;20057;-61
2022/04/05 00:53:07;;;;;;;23.27;14.98;;;3.00;99.90;;;;;;4930750;28;20877;-61
2022/04/05 00:55:35;;;;;;;24.38;16.25;;;3.10;99.90;;;;;;4929992;28;20053;-61
2022/04/05 00:58:03;;;;;;;22.50;16.00;;;3.10;99.90;;;;;;4926844;28;20050;-62
2022/04/05 01:00:32;;;;;;;22.88;14.95;;;3.10;99.90;;;;;;4932667;28;20043;-61
2022/04/05 01:03:00;;;;;;;21.48;14.82;;;3.10;99.90;;;;;;4934293;28;20046;-61
2022/04/05 01:05:28;;;;;;;22.70;15.20;;;3.10;99.90;;;;;;4929221;28;20560;-61
2022/04/05 01:07:59;;;;;;;23.25;15.77;;;3.20;99.90;;;;;;4930732;28;20403;-61
2022/04/05 01:10:32;;;;;;;26.55;15.77;;;3.20;99.90;;;;;;4930579;28;20544;-61
2022/04/05 01:12:59;;;;;;;24.40;15.98;;;3.10;99.90;;;;;;4930269;28;20907;-61
2022/04/05 01:15:26;;;;;;;24.33;15.65;;;3.20;99.90;;;;;;4928726;28;20583;-61
2022/04/05 01:17:55;;;;;;;25.10;15.50;;;3.10;99.90;;;;;;4929909;28;20050;-61
2022/04/05 01:20:23;;;;;;;24.55;14.77;;;3.20;99.90;;;;;;4931852;28;20042;-60
2022/04/05 01:22:54;;;;;;;21.13;14.38;;;3.20;99.90;;;;;;4928716;28;20582;-61
2022/04/05 01:25:21;;;;;;;18.67;13.95;;;3.20;99.90;;;;;;4930021;28;20642;-62
2022/04/05 01:27:50;;;;;;;25.95;16.38;;;3.20;99.90;;;;;;4930737;28;20108;-61
2022/04/05 01:30:17;;;;;;;23.77;15.63;;;3.20;99.90;;;;;;4929342;28;20124;-61
2022/04/05 01:32:44;;;;;;;20.70;14.73;;;3.20;99.90;;;;;;4929963;28;20377;-61
2022/04/05 01:35:11;;;;;;;23.02;15.15;;;3.20;99.90;;;;;;4929444;28;20046;-60
2022/04/05 01:37:38;;;;;;;24.27;16.13;;;3.10;99.90;;;;;;4926750;28;20924;-61
2022/04/05 01:40:06;;;;;;;22.60;14.93;;;3.10;99.90;;;;;;4929056;28;20634;-61
2022/04/05 01:42:34;;;;;;;27.08;16.42;;;3.10;99.90;;;;;;4933112;28;20290;-61
2022/04/05 01:45:02;;;;;;;23.02;15.93;;;3.00;99.90;;;;;;4930990;28;20053;-61
2022/04/05 01:47:29;;;;;;;22.73;14.50;;;3.00;99.90;;;;;;4929473;28;20039;-60
2022/04/05 01:49:57;;;;;;;26.30;16.75;;;2.90;99.90;;;;;;4932022;28;20050;-61
2022/04/05 01:52:25;;;;;;;24.38;16.75;;;2.90;99.90;;;;;;4928472;28;20034;-61
2022/04/05 01:54:52;;;;;;;21.17;15.25;;;2.90;99.90;;;;;;4930171;28;20449;-60
2022/04/05 01:57:19;;;;;;;22.75;16.27;;;2.80;99.90;;;;;;4929797;28;20038;-60
2022/04/05 01:59:46;;;;;;;23.50;15.32;;;2.80;99.90;;;;;;4927574;28;20584;-61
2022/04/05 02:02:13;;;;;;;26.30;16.05;;;2.80;99.90;;;;;;4930542;28;20310;-61
2022/04/05 02:04:40;;;;;;;27.35;16.83;;;2.80;99.90;;;;;;4930627;28;20039;-61
2022/04/05 02:07:12;;;;;;;22.83;16.50;;;2.80;99.90;;;;;;4910076;28;20160;-61
2022/04/05 02:09:40;;;;;;;26.75;16.75;;;2.80;99.90;;;;;;4910589;28;20057;-61
2022/04/05 02:12:07;;;;;;;26.40;17.77;;;2.80;99.90;;;;;;4929412;28;20035;-61
2022/04/05 02:14:59;;;;;;;28.33;17.50;;;2.80;99.90;;;;;;4928588;28;20271;-62
2022/04/05 02:17:34;;;;;;;25.88;17.15;;;2.80;99.90;;;;;;4926002;28;20591;-61
2022/04/05 02:20:05;;;;;;;27.60;17.67;;;2.80;99.90;;;;;;4911359;28;20642;-61
2022/04/05 02:22:34;;;;;;;27.33;16.83;;;2.80;99.90;;;;;;4927040;28;20654;-61
2022/04/05 02:25:07;;;;;;;26.55;17.63;;;2.80;99.90;;;;;;4926596;28;20057;-61
2022/04/05 02:27:41;;;;;;;29.13;17.05;;;2.80;99.90;;;;;;4926097;28;20522;-60
2022/04/05 02:30:16;;;;;;;25.05;17.30;;;2.80;99.90;;;;;;4929067;28;20270;-61
2022/04/05 02:32:45;;;;;;;26.05;17.35;;;2.80;99.90;;;;;;4930889;28;20042;-61
2022/04/05 02:35:14;;;;;;;28.85;18.55;;;2.70;99.90;;;;;;4926385;28;20315;-61
2022/04/05 02:37:41;;;;;;;26.55;18.00;;;2.80;99.90;;;;;;4922958;28;20042;-61
2022/04/05 02:40:12;;;;;;;28.52;18.88;;;2.80;99.90;;;;;;4928038;28;20197;-62
2022/04/05 02:42:40;;;;;;;26.80;15.93;;;2.80;99.90;;;;;;4925886;28;20061;-61
2022/04/05 02:45:10;;;;;;;25.40;16.35;;;2.90;99.90;;;;;;4925663;28;20638;-61
2022/04/05 02:47:39;;;;;;;23.02;16.33;;;2.90;99.90;;;;;;4925858;28;20185;-61
2022/04/05 02:50:07;;;;;;;24.38;16.75;;;2.90;99.90;;;;;;4925743;28;20655;-62
2022/04/05 02:52:34;;;;;;;24.13;16.80;;;3.00;99.90;;;;;;4927188;28;20153;-61
2022/04/05 02:55:04;;;;;;;29.05;17.67;;;3.00;99.90;;;;;;4929514;28;20576;-61
2022/04/05 02:57:40;;;;;;;24.13;16.17;;;3.00;99.90;;;;;;4927129;28;20101;-61
2022/04/05 03:00:15;;;;;;;26.52;15.75;;;3.10;99.90;;;;;;4924380;28;20046;-61
2022/04/05 03:02:44;;;;;;;25.00;16.35;;;3.00;99.90;;;;;;4926795;28;20529;-61
2022/04/05 03:05:13;;;;;;;24.23;16.40;;;3.00;99.90;;;;;;4928388;28;20034;-61
2022/04/05 03:07:41;;;;;;;28.05;16.63;;;3.00;99.90;;;;;;4925969;28;20506;-61
2022/04/05 03:10:10;;;;;;;27.35;17.60;;;3.10;99.90;;;;;;4928176;28;20671;-61
2022/04/05 03:12:40;;;;;;;24.27;16.10;;;3.10;99.90;;;;;;4927797;28;20046;-61
2022/04/05 03:15:09;;;;;;;23.05;15.48;;;3.20;99.90;;;;;;4926089;28;20329;-62
2022/04/05 03:17:46;;;;;;;28.67;16.05;;;3.20;99.90;;;;;;4925693;28;20161;-61
2022/04/05 03:20:19;;;;;;;26.25;16.80;;;3.20;99.90;;;;;;4930007;28;20038;-61
2022/04/05 03:22:50;;;;;;;24.75;15.35;;;3.20;99.90;;;;;;4933420;28;20034;-61
2022/04/05 03:25:17;;;;;;;26.20;16.75;;;3.30;99.90;;;;;;4933236;28;20117;-62
2022/04/05 03:27:46;;;;;;;26.95;16.00;;;3.30;99.90;;;;;;4928876;28;20042;-61
2022/04/05 03:30:18;;;;;;;27.77;16.58;;;3.30;99.90;;;;;;4932230;28;20941;-61
2022/04/05 03:32:46;;;;;;;25.40;16.58;;;3.40;99.90;;;;;;4931707;28;20043;-61
2022/04/05 03:35:15;;;;;;;24.67;16.20;;;3.40;99.90;;;;;;4930636;28;20076;-62
2022/04/05 03:37:42;;;;;;;23.98;15.02;;;3.40;99.90;;;;;;4932247;28;20815;-61
2022/04/05 03:40:12;;;;;;;25.45;14.63;;;3.40;99.90;;;;;;4929240;28;20212;-61
2022/04/05 03:42:40;;;;;;;31.25;17.20;;;3.40;99.90;;;;;;4932657;28;20120;-61
2022/04/05 03:45:08;;;;;;;27.92;16.33;;;3.40;99.90;;;;;;4930308;28;20227;-60
2022/04/05 03:47:35;;;;;;;26.48;17.23;;;3.40;99.90;;;;;;4912584;28;20038;-61
2022/04/05 03:50:04;;;;;;;26.92;16.10;;;3.50;99.90;;;;;;4930869;28;20044;-60
2022/04/05 03:52:34;;;;;;;22.67;15.13;;;3.40;99.90;;;;;;4928330;28;20039;-62
2022/04/05 03:55:01;;;;;;;26.15;16.48;;;3.40;99.90;;;;;;4933086;28;20213;-64
2022/04/05 03:57:28;;;;;;;21.50;14.45;;;3.40;99.90;;;;;;4928722;28;20061;-65
2022/04/05 03:59:57;;;;;;;25.60;16.23;;;3.50;99.90;;;;;;4928143;28;20978;-63
2022/04/05 04:02:25;;;;;;;23.70;14.88;;;3.50;99.90;;;;;;4946225;28;20812;-65
2022/04/05 04:04:57;;;;;;;23.38;14.25;;;3.50;99.90;;;;;;4950770;28;20056;-64
2022/04/05 04:07:24;;;;;;;28.00;16.55;;;3.50;99.90;;;;;;4949140;28;20041;-64
2022/04/05 04:09:51;;;;;;;24.15;15.57;;;3.50;99.90;;;;;;4951110;28;20124;-64
2022/04/05 04:12:19;;;;;;;23.20;14.95;;;3.50;99.90;;;;;;4932883;28;20575;-65
2022/04/05 04:14:47;;;;;;;24.65;16.10;;;3.50;99.90;;;;;;4946674;28;20042;-64
2022/04/05 04:17:20;;;;;;;24.55;15.60;;;3.50;99.90;;;;;;4928066;28;20045;-61
2022/04/05 04:19:47;;;;;;;25.40;14.65;;;3.40;99.90;;;;;;4929335;28;20362;-64
2022/04/05 04:22:15;;;;;;;22.50;13.63;;;3.40;99.90;;;;;;4913489;28;20101;-64
2022/04/05 04:24:42;;;;;;;24.27;15.00;;;3.40;99.90;;;;;;4930952;28;20050;-64
2022/04/05 04:27:13;;;;;;;23.15;14.95;;;3.40;99.90;;;;;;4929700;28;20148;-62
2022/04/05 04:29:40;;;;;;;24.88;14.90;;;3.40;99.90;;;;;;4934576;28;20035;-61
2022/04/05 04:32:07;;;;;;;26.08;14.73;;;3.40;99.90;;;;;;4927657;28;20672;-62
2022/04/05 04:34:34;;;;;;;24.77;14.68;;;3.30;99.90;;;;;;4932837;28;20162;-63
2022/04/05 04:37:04;;;;;;;24.70;15.55;;;3.30;99.90;;;;;;4929763;28;20046;-63
2022/04/05 04:39:32;;;;;;;26.77;14.95;;;3.20;99.90;;;;;;4929565;28;20209;-62
2022/04/05 04:42:00;;;;;;;19.60;12.27;;;3.20;99.90;;;;;;4929775;28;20985;-62
2022/04/05 04:44:27;;;;;;;23.88;15.80;;;3.20;99.90;;;;;;4931754;28;20181;-63
2022/04/05 04:46:54;;;;;;;23.85;14.43;;;3.20;99.90;;;;;;4934778;28;20365;-62
2022/04/05 04:49:21;;;;;;;26.60;15.70;;;3.20;99.90;;;;;;4928357;28;20153;-63
2022/04/05 04:51:48;;;;;;;20.58;13.05;;;3.20;99.90;;;;;;4930079;28;20148;-65
2022/04/05 04:54:15;;;;;;;22.13;14.45;;;3.20;99.90;;;;;;4912837;28;20795;-64
2022/04/05 04:56:42;;;;;;;23.40;14.40;;;3.20;99.90;;;;;;4931612;28;20058;-64
2022/04/05 04:59:09;;;;;;;22.60;15.18;;;3.10;99.90;;;;;;4928481;28;20046;-64
2022/04/05 05:01:36;;;;;;;20.50;14.35;;;3.10;99.90;;;;;;4929960;28;20540;-65
2022/04/05 05:04:03;;;;;;;26.40;15.25;;;3.10;99.90;;;;;;4930105;28;20638;-60
2022/04/05 05:06:30;;;;;;;28.13;15.25;;;3.10;99.90;;;;;;4932094;28;20191;-60
2022/04/05 05:08:57;;;;;;;26.42;15.07;;;3.10;99.90;;;;;;4930989;28;20045;-61
2022/04/05 05:11:25;;;;;;;26.98;15.82;;;3.10;99.90;;;;;;4932147;28;20042;-61
2022/04/05 05:13:52;;;;;;;23.23;15.00;;;3.10;99.90;;;;;;4929919;28;20337;-60
2022/04/05 05:16:19;;;;;;;25.67;15.38;;;3.10;99.90;;;;;;4930690;28;20748;-60
2022/04/05 05:18:46;;;;;;;24.75;14.68;;;3.10;99.90;;;;;;4929160;28;20041;-60
2022/04/05 05:21:13;;;;;;;;;;;3.10;99.90;;;;;;4932912;28;20038;-60
2022/04/05 05:23:40;;;;;;;22.63;14.13;;;3.10;99.90;;;;;;4928168;28;19932;-60
2022/04/05 05:26:07;;;;;;;24.92;14.23;;;3.10;99.90;;;;;;4930925;28;20039;-60
2022/04/05 05:28:33;;;;;;;25.30;15.38;;;3.20;99.90;;;;;;4930279;28;20382;-60
2022/04/05 05:31:00;;;;;;;23.63;15.40;;;3.20;99.90;;;;;;4930836;28;20585;-60
2022/04/05 05:33:27;;;;;;;21.17;12.88;;;3.30;99.90;;;;;;4934433;28;20142;-60
2022/04/05 05:35:54;;;;;;;20.95;12.23;;;3.30;99.90;;;;;;4929730;28;20485;-60
2022/04/05 05:38:21;;;;;;;21.55;13.38;;;3.40;99.90;;;;;;4931289;28;20379;-60
2022/04/05 05:40:48;;;;;;;;;;;3.50;99.90;;;;;;4932443;28;20149;-60
2022/04/05 05:43:15;;;;;;;31.05;16.95;;;3.50;99.90;;;;;;4928838;28;19930;-60
2022/04/05 05:45:42;;;;;;;30.63;13.20;;;3.50;99.90;;;;;;4930987;28;20046;-58
2022/04/05 05:48:10;;;;;;;20.67;12.63;;;3.50;99.90;;;;;;4920139;28;20046;-61
2022/04/05 05:50:37;;;;;;;22.42;12.77;;;3.50;99.90;;;;;;4930830;28;20038;-62
2022/04/05 05:53:04;;;;;;;20.83;13.23;;;3.50;99.90;;;;;;4928630;28;21003;-61
2022/04/05 05:55:32;;;;;;;23.33;13.45;;;3.50;99.90;;;;;;4929519;28;20344;-62
2022/04/05 05:58:02;;;;;;;17.30;12.32;;;3.50;99.90;;;;;;4927437;28;20153;-61
2022/04/05 06:00:30;;;;;;;37.75;17.63;;;3.60;99.90;;;;;;4928206;28;20626;-59
2022/04/05 06:03:01;;;;;;;20.70;12.90;;;3.60;99.90;;;;;;4930624;28;20054;-59
2022/04/05 06:05:29;;;;;;;21.45;11.45;;;3.60;99.90;;;;;;4929921;28;20207;-62
2022/04/05 06:07:56;;;;;;;16.73;11.10;;;3.60;99.90;;;;;;4930001;28;20519;-60
2022/04/05 06:10:24;;;;;;;20.70;13.90;;;3.70;99.90;;;;;;4930420;28;20128;-61
2022/04/05 06:12:55;;;;;;;22.45;12.73;;;3.70;99.90;;;;;;4930119;28;20074;-61
2022/04/05 06:15:23;;;;;;;19.58;12.93;;;3.70;99.90;;;;;;4927331;28;20050;-62
2022/04/05 06:17:51;;;;;;;19.98;11.98;;;3.70;99.90;;;;;;4910078;28;20292;-61
2022/04/05 06:20:20;;;;;;;19.48;12.52;;;3.80;99.90;;;;;;4910948;28;20050;-61
2022/04/05 06:22:57;;;;;;;15.20;10.15;;;3.80;99.90;;;;;;4910926;28;20386;-61
2022/04/05 06:25:27;;;;;;;15.90;10.30;;;3.80;99.90;;;;;;4912761;28;20157;-60
2022/04/05 06:27:58;;;;;;;18.42;11.23;;;3.90;99.90;;;;;;4923821;28;20042;-60
2022/04/05 06:30:25;;;;;;;16.70;10.20;;;3.90;99.90;;;;;;4908820;28;20937;-61
2022/04/05 06:33:05;;;;;;;16.42;10.52;;;3.90;99.90;;;;;;4910828;28;20046;-61
2022/04/05 06:35:32;;;;;;;16.90;10.75;;;4.00;99.90;;;;;;4914239;28;20548;-59
2022/04/05 06:37:59;;;;;;;;;;;4.10;99.90;;;;;;4925714;28;20062;-61
2022/04/05 06:40:27;;;;;;;16.95;10.73;;;4.10;99.90;;;;;;4919502;28;20078;-61
2022/04/05 06:42:53;;;;;;;19.35;11.02;;;4.20;99.90;;;;;;4929558;28;20597;-61
2022/04/05 06:45:22;;;;;;;19.25;10.93;;;4.20;99.90;;;;;;4930048;28;20065;-61
2022/04/05 06:47:49;;;;;;;14.27;9.27;;;4.30;99.90;;;;;;4927019;28;20527;-60
2022/04/05 06:50:20;;;;;;;17.58;10.18;;;4.40;99.90;;;;;;4929937;28;20058;-59
2022/04/05 06:52:47;;;;;;;19.42;10.35;;;4.40;99.90;;;;;;4929411;28;20042;-60
2022/04/05 06:55:14;;;;;;;24.40;12.73;;;4.50;99.90;;;;;;4934220;28;20339;-57
2022/04/05 06:57:42;;;;;;;17.90;11.65;;;4.50;99.90;;;;;;4933484;28;20052;-56
2022/04/05 07:00:12;;;;;;;16.88;11.35;;;4.60;99.90;;;;;;4932449;28;20374;-57
2022/04/05 07:02:39;;;;;;;18.98;11.70;;;4.70;99.90;;;;;;4931523;28;20908;-57
2022/04/05 07:05:08;;;;;;;16.98;11.18;;;4.70;99.90;;;;;;4933764;28;20039;-56
2022/04/05 07:07:37;;;;;;;21.80;11.55;;;4.80;99.90;;;;;;4930445;28;20140;-58
2022/04/05 07:10:05;;;;;;;14.25;9.77;;;4.80;99.90;;;;;;4933201;28;20042;-57
2022/04/05 07:12:33;;;;;;;18.38;11.32;;;4.90;99.90;;;;;;4932457;28;20729;-57
2022/04/05 07:15:00;;;;;;;16.77;11.30;;;4.90;99.90;;;;;;4933532;28;20645;-58
2022/04/05 07:17:27;;;;;;;15.55;11.02;;;4.90;99.90;;;;;;4930063;28;20509;-58
2022/04/05 07:20:14;;;;;;;14.90;9.43;;;5.00;99.90;;;;;;4934125;28;20180;-57
2022/04/05 07:22:45;;;;;;;;;;;5.00;99.90;;;;;;4934737;28;20314;-59
2022/04/05 07:25:13;;;;;;;14.75;9.65;;;5.00;99.90;;;;;;4931916;28;20821;-57
2022/04/05 07:27:40;;;;;;;13.90;9.05;;;5.10;99.90;;;;;;4929732;28;20789;-58
2022/04/05 07:30:07;;;;;;;13.45;8.68;;;5.10;99.90;;;;;;4932583;28;20136;-57
2022/04/05 07:32:37;;;;;;;14.18;8.90;;;5.10;99.90;;;;;;4931439;28;20707;-56
2022/04/05 07:35:05;;;;;;;16.30;10.45;;;5.10;99.90;;;;;;4937394;28;20053;-58
2022/04/05 07:37:32;;;;;;;15.27;10.10;;;5.10;99.90;;;;;;4927285;28;20586;-56
2022/04/05 07:39:59;;;;;;;19.35;11.85;;;5.10;99.90;;;;;;4930297;28;20281;-60
2022/04/05 07:42:27;;;;;;;18.50;11.25;;;5.10;99.90;;;;;;4933783;28;20227;-57
2022/04/05 07:44:54;;;;;;;17.45;11.82;;;5.00;99.90;;;;;;4930061;28;20042;-57
2022/04/05 07:47:25;;;;;;;17.55;11.98;;;5.00;99.90;;;;;;4930458;28;20459;-57
2022/04/05 07:49:52;;;;;;;19.33;11.75;;;4.90;99.90;;;;;;4933483;28;20100;-58
2022/04/05 07:52:19;;;;;;;22.83;12.48;;;4.90;99.90;;;;;;4929199;28;20824;-57
2022/04/05 07:54:46;;;;;;;18.23;11.65;;;4.90;99.90;;;;;;4931817;28;20039;-57
2022/04/05 07:57:13;;;;;;;21.30;13.05;;;4.90;99.90;;;;;;4932703;28;20057;-58
2022/04/05 07:59:41;;;;;;;20.45;12.93;;;4.90;99.90;;;;;;4929954;28;20259;-63
2022/04/05 08:02:08;;;;;;;20.48;12.93;;;4.90;99.90;;;;;;4931631;28;20042;-62
2022/04/05 08:04:53;;;;;;;19.98;13.95;;;5.00;99.90;;;;;;4931408;28;20046;-62
2022/04/05 08:07:19;;;;;;;18.23;11.80;;;5.10;99.90;;;;;;4932693;28;20556;-62
2022/04/05 08:09:46;;;;;;;22.33;13.80;;;5.10;99.90;;;;;;4931479;28;20258;-57
2022/04/05 08:12:13;;;;;;;;;;;5.20;99.90;;;;;;4931521;28;20050;-57
2022/04/05 08:14:40;;;;;;;18.50;11.43;;;5.30;99.90;;;;;;4932173;28;19937;-57
2022/04/05 08:17:07;;;;;;;17.80;11.88;;;5.40;99.90;;;;;;4928997;28;20219;-56
2022/04/05 08:19:34;;;;;;;;;;;5.50;99.90;;;;;;4930133;28;20042;-60
2022/04/05 08:22:01;;;;;;;21.58;12.75;;;5.50;99.90;;;;;;4932329;28;19926;-60
2022/04/05 08:24:28;;;;;;;17.35;10.60;;;5.60;99.90;;;;;;4932107;28;20046;-57
2022/04/05 08:26:55;;;;;;;16.83;11.30;;;5.80;99.90;;;;;;4931813;28;20069;-58
2022/04/05 08:29:22;;;;;;;;;;;5.90;99.90;;;;;;4932022;28;20132;-59
2022/04/05 08:31:49;;;;;;;18.55;10.38;;;5.90;99.90;;;;;;4931702;28;19929;-57
2022/04/05 08:34:16;;;;;;;15.45;11.32;;;6.00;99.90;;;;;;4930151;28;20053;-58
2022/04/05 08:36:43;;;;;;;15.88;11.68;;;6.10;99.90;;;;;;4930508;28;20061;-59
2022/04/05 08:39:10;;;;;;;15.93;11.13;;;6.10;99.90;;;;;;4928307;28;20042;-58
2022/04/05 08:41:39;;;;;;;21.02;11.13;;;6.10;99.90;;;;;;4932106;28;20717;-57
2022/04/05 08:44:07;;;;;;;19.98;10.65;;;6.10;99.90;;;;;;4928006;28;20038;-58
2022/04/05 08:46:34;;;;;;;18.25;10.93;;;6.10;99.90;;;;;;4891177;28;1201099;-57
2022/04/05 08:49:03;;;;;;;18.25;11.45;;;6.10;99.90;;;;;;4933022;28;20630;-56
2022/04/05 08:51:30;;;;;;;16.52;10.52;;;6.20;99.90;;;;;;4930209;28;20787;-58
2022/04/05 08:53:57;;;;;;;16.70;10.73;;;6.20;99.90;;;;;;4917560;28;20042;-57
2022/04/05 08:56:30;;;;;;;14.93;10.07;;;6.30;99.90;;;;;;4936539;28;20599;-58
2022/04/05 08:58:57;;;;;;;16.10;9.80;;;6.30;99.90;;;;;;4934965;28;20042;-59
2022/04/05 09:01:29;;;;;;;12.27;8.93;;;6.40;99.90;;;;;;4926737;28;20160;-58
2022/04/05 09:03:57;;;;;;;15.45;9.82;;;6.40;99.90;;;;;;4909430;28;20574;-54
2022/04/05 09:06:28;;;;;;;15.80;9.93;;;6.50;99.90;;;;;;4911446;28;20069;-58
2022/04/05 09:09:08;;;;;;;12.88;8.02;;;6.60;99.90;;;;;;4910765;28;20220;-62
2022/04/05 09:11:36;;;;;;;19.17;9.18;;;6.60;99.90;;;;;;4914028;28;20035;-57
2022/04/05 09:14:05;;;;;;;11.90;8.65;;;6.70;99.90;;;;;;4907432;28;20415;-57
2022/04/05 09:16:33;;;;;;;11.75;8.45;;;6.80;99.90;;;;;;4928269;28;20109;-56
2022/04/05 09:19:13;;;;;;;10.88;7.95;;;6.80;99.90;;;;;;4914430;28;20286;-57
2022/04/05 09:21:48;;;;;;;11.27;8.15;;;6.90;99.90;;;;;;4930059;28;20046;-55
2022/04/05 09:24:16;;;;;;;10.98;7.70;;;6.90;99.90;;;;;;4926414;28;20459;-57
2022/04/05 09:26:44;;;;;;;13.13;8.07;;;7.00;99.90;;;;;;4927697;28;20038;-55
2022/04/05 09:29:11;;;;;;;12.38;9.27;;;7.00;99.90;;;;;;4910423;28;20817;-56
2022/04/05 09:31:48;;;;;;;10.80;7.60;;;7.00;99.90;;;;;;4929447;28;20774;-58
2022/04/05 09:34:19;;;;;;;11.20;8.18;;;7.00;99.90;;;;;;4927600;28;20277;-55
2022/04/05 09:36:49;;;;;;;12.02;7.97;;;7.00;99.90;;;;;;4929411;28;20222;-57
2022/04/05 09:39:18;;;;;;;8.82;6.70;;;7.00;99.90;;;;;;4925456;28;20053;-57
2022/04/05 09:41:48;;;;;;;13.65;6.63;;;7.00;99.90;;;;;;4931064;28;20053;-58
2022/04/05 09:44:29;;;;;;;10.98;7.68;;;7.00;99.90;;;;;;4927697;28;20042;-57
2022/04/05 09:47:14;;;;;;;13.88;7.43;;;7.10;99.90;;;;;;4926871;28;20262;-55
2022/04/05 09:49:43;;;;;;;11.50;6.70;;;7.20;99.90;;;;;;4908520;28;20038;-56
2022/04/05 09:52:31;;;;;;;9.55;7.30;;;7.30;99.90;;;;;;4921922;28;20346;-56
2022/04/05 09:55:15;;;;;;;9.27;6.63;;;7.30;99.90;;;;;;4927633;28;20046;-57
2022/04/05 09:57:43;;;;;;;13.80;6.47;;;7.40;99.90;;;;;;4926384;28;20402;-59
2022/04/05 10:00:15;;;;;;;9.57;5.43;;;7.40;99.90;;;;;;4929247;28;20046;-60
2022/04/05 10:03:02;;;;;;;6.18;5.00;;;7.50;99.90;;;;;;4936028;28;20038;-60
2022/04/05 10:05:30;;;;;;;6.78;5.53;;;7.40;99.90;;;;;;4949298;28;20152;-59
2022/04/05 10:07:58;;;;;;;7.40;5.47;;;7.50;99.90;;;;;;4949217;28;20061;-60
2022/04/05 10:10:27;;;;;;;8.48;4.78;;;7.50;99.90;;;;;;4947257;28;20153;-61
2022/04/05 10:12:54;;;;;;;9.18;4.88;;;7.50;99.90;;;;;;4942509;28;20323;-61
2022/04/05 10:15:21;;;;;;;6.95;4.80;;;7.50;99.90;;;;;;4936375;28;20556;-60
2022/04/05 10:17:49;;;;;;;4.68;3.92;;;7.60;99.90;;;;;;4926819;28;20212;-60
2022/04/05 10:20:17;;;;;;;6.90;4.65;;;7.60;99.90;;;;;;4928205;28;20047;-61
2022/04/05 10:22:52;;;;;;;6.78;4.32;;;7.70;99.90;;;;;;4929231;28;20091;-61
2022/04/05 10:25:21;;;;;;;5.70;4.60;;;7.70;99.90;;;;;;4924542;28;20212;-61
2022/04/05 10:27:49;;;;;;;7.60;4.95;;;7.80;99.90;;;;;;4927331;28;20792;-61
2022/04/05 10:30:18;;;;;;;6.93;4.60;;;7.90;99.90;;;;;;4929375;28;20053;-61
2022/04/05 10:33:05;;;;;;;6.38;4.75;;;8.00;99.90;;;;;;4928241;28;20046;-60
2022/04/05 10:35:40;;;;;;;5.55;4.28;;;8.10;99.90;;;;;;4929314;28;20038;-61
2022/04/05 10:38:13;;;;;;;6.38;4.55;;;8.20;99.90;;;;;;4930412;28;20872;-59
2022/04/05 10:40:41;;;;;;;5.60;4.15;;;8.20;99.90;;;;;;4940964;28;20810;-61
2022/04/05 10:43:17;;;;;;;7.10;4.97;;;8.30;99.90;;;;;;4929069;28;20374;-61
2022/04/05 10:45:45;;;;;;;8.17;5.23;;;8.40;99.90;;;;;;4927822;28;20038;-60
2022/04/05 10:48:18;;;;;;;5.80;4.65;;;8.40;99.90;;;;;;4924537;28;20567;-60
2022/04/05 10:51:00;;;;;;;7.00;4.80;;;8.50;99.90;;;;;;4930544;28;21111;-61
2022/04/05 10:53:34;;;;;;;5.45;4.55;;;8.50;99.90;;;;;;4927574;28;20065;-61
2022/04/05 10:56:08;;;;;;;7.55;5.13;;;8.60;99.90;;;;;;4928855;28;20333;-60
2022/04/05 10:58:41;;;;;;;7.35;5.18;;;8.60;99.90;;;;;;4928624;28;20339;-61
2022/04/05 11:01:17;;;;;;;7.90;5.18;;;8.50;99.90;;;;;;4927381;28;20590;-61
2022/04/05 11:04:09;;;;;;;8.80;6.00;;;8.50;99.90;;;;;;4926895;28;20231;-61
2022/04/05 11:06:59;;;;;;;8.07;4.82;;;8.50;99.90;;;;;;4928459;28;20047;-61
2022/04/05 11:09:33;;;;;;;10.25;5.93;;;8.60;99.90;;;;;;4928396;28;20354;-61
2022/04/05 11:12:09;;;;;;;8.05;6.60;;;8.60;99.90;;;;;;4929768;28;20282;-60
2022/04/05 11:14:49;;;;;;;8.55;4.78;;;8.70;99.90;;;;;;4925273;28;20318;-61
2022/04/05 11:17:19;;;;;;;11.43;6.38;;;8.70;99.90;;;;;;4926202;28;20050;-59
2022/04/05 11:19:50;;;;;;;7.97;6.10;;;8.80;99.90;;;;;;4932477;28;20644;-61
2022/04/05 11:22:20;;;;;;;10.27;7.15;;;8.90;99.90;;;;;;4927019;28;20582;-59
2022/04/05 11:24:56;;;;;;;5.95;4.32;;;8.90;99.90;;;;;;4928314;28;20046;-61
2022/04/05 11:27:28;;;;;;;5.45;3.83;;;9.00;99.90;;;;;;4926541;28;20054;-61
2022/04/05 11:30:25;;;;;;;4.55;3.22;;;9.10;99.90;;;;;;4927213;28;20379;-61
2022/04/05 11:33:32;;;;;;;3.05;2.75;;;9.20;99.90;;;;;;4914579;28;20267;-61
2022/04/05 11:36:04;;;;;;;3.38;2.83;;;9.30;99.90;;;;;;4932572;28;20990;-61
2022/04/05 11:38:38;;;;;;;2.90;2.47;;;9.30;99.90;;;;;;4911011;28;20054;-60
2022/04/05 11:41:08;;;;;;;5.03;2.92;;;9.40;99.90;;;;;;4927944;28;20513;-61
2022/04/05 11:43:44;;;;;;;10.65;2.17;;;9.40;99.90;;;;;;4928715;28;20046;-58
2022/04/05 11:46:13;;;;;;;3.80;2.00;;;9.30;99.90;;;;;;4930326;28;20034;-58
2022/04/05 11:48:50;;;;;;;3.40;1.85;;;9.40;99.90;;;;;;4928855;28;20705;-56
2022/04/05 11:51:22;;;;;;;2.55;1.92;;;9.40;99.90;;;;;;4931079;28;20053;-56
2022/04/05 11:54:05;;;;;;;1.95;1.40;;;9.50;99.90;;;;;;4945706;28;20127;-57
2022/04/05 11:56:34;;;;;;;5.95;2.63;;;9.60;99.90;;;;;;4950532;28;20536;-58
2022/04/05 11:59:03;;;;;;;2.72;1.80;;;9.60;99.90;;;;;;4951653;28;20045;-58
2022/04/05 12:01:39;;;;;;;2.15;1.80;;;9.70;99.90;;;;;;4950388;28;20067;-58
2022/04/05 12:04:21;;;;;;;2.50;1.88;;;9.80;99.90;;;;;;4933083;28;20350;-57
2022/04/05 12:06:54;;;;;;;2.05;1.65;;;9.90;99.90;;;;;;4930280;28;20864;-58
2022/04/05 12:09:23;;;;;;;2.20;1.80;;;9.90;99.90;;;;;;4932933;28;20141;-56
2022/04/05 12:11:52;;;;;;;2.78;1.88;;;10.00;99.90;;;;;;4929857;28;20168;-58
2022/04/05 12:14:21;;;;;;;3.83;1.73;;;10.10;99.90;;;;;;4930705;28;20046;-58
2022/04/05 12:16:58;;;;;;;2.42;1.92;;;10.20;99.90;;;;;;4928419;28;20061;-59
2022/04/05 12:19:41;;;;;;;3.35;1.92;;;10.30;99.90;;;;;;4927351;28;20801;-62
2022/04/05 12:22:16;;;;;;;3.53;1.85;;;10.40;99.90;;;;;;4932917;28;20034;-63
2022/04/05 12:24:51;;;;;;;2.33;1.75;;;10.50;99.90;;;;;;4931315;28;20057;-62
2022/04/05 12:27:23;;;;;;;1.83;1.65;;;10.50;99.90;;;;;;4941884;28;20127;-62
2022/04/05 12:30:00;;;;;;;3.35;2.50;;;10.60;99.90;;;;;;4949006;28;20111;-62
2022/04/05 12:32:35;;;;;;;4.03;2.33;;;10.60;99.90;;;;;;4950619;28;20046;-61
2022/04/05 12:35:03;;;;;;;5.00;2.88;;;10.60;99.90;;;;;;4948101;28;20208;-61
2022/04/05 12:37:30;;;;;;;6.13;3.22;;;10.60;99.90;;;;;;4964371;28;20046;-61
2022/04/05 12:39:57;;;;;;;3.38;2.35;;;10.60;99.90;;;;;;4940459;28;20042;-61
2022/04/05 12:42:26;;;;;;;3.80;2.10;;;10.60;99.90;;;;;;4927737;28;20124;-61
2022/04/05 12:44:57;;;;;;;2.30;2.10;;;10.60;99.90;;;;;;4931095;28;20148;-61
2022/04/05 12:47:25;;;;;;;3.75;2.25;;;10.60;99.90;;;;;;4931078;28;20034;-60
2022/04/05 12:49:58;;;;;;;3.92;2.33;;;10.60;99.90;;;;;;4929784;28;20184;-61
2022/04/05 12:52:33;;;;;;;5.88;2.20;;;10.60;99.90;;;;;;4927663;28;20038;-61
2022/04/05 12:55:11;;;;;;;11.52;2.38;;;10.60;99.90;;;;;;4932361;28;20555;-61
2022/04/05 12:57:45;;;;;;;1.92;1.70;;;10.70;99.90;;;;;;4931125;28;20417;-61